Time;durP1;ratioP1;P1;durP2;ratioP2;P2;SDS_P1;SDS_P2;PMS_P1;PMS_P2;Temp;Humidity;BMP_temperature;BMP_pressure;BME280_temperature;BME280_humidity;BME280_pressure;Samples;Min_cycle;Max_cycle;Signal;HPM_P1;HPM_P2
2022/08/15 00:01:30;;;;;;;4.67;2.60;;;21.00;99.90;;;;;;5061316;28;20202;-50
2022/08/15 00:04:00;;;;;;;3.83;2.40;;;21.10;99.90;;;;;;5061728;28;20210;-50
2022/08/15 00:06:30;;;;;;;3.00;2.70;;;21.10;99.90;;;;;;5051820;28;20221;-49
2022/08/15 00:09:00;;;;;;;2.80;2.60;;;21.00;99.90;;;;;;5068926;28;20228;-51
2022/08/15 00:11:32;;;;;;;3.47;2.77;;;20.90;99.90;;;;;;5066895;28;20293;-51
2022/08/15 00:14:03;;;;;;;3.13;2.67;;;20.90;99.90;;;;;;5061588;28;20203;-53
2022/08/15 00:16:35;;;;;;;4.90;2.97;;;20.80;99.90;;;;;;5062149;28;20203;-49
2022/08/15 00:19:07;;;;;;;3.03;2.70;;;20.70;99.90;;;;;;5075402;28;20590;-49
2022/08/15 00:21:35;;;;;;;2.80;2.60;;;20.60;99.90;;;;;;5066406;28;20247;-50
2022/08/15 00:24:02;;;;;;;3.97;2.30;;;20.60;99.90;;;;;;5074798;28;20204;-49
2022/08/15 00:26:34;;;;;;;3.23;2.63;;;20.50;99.90;;;;;;5063598;28;20218;-52
2022/08/15 00:29:03;;;;;;;3.57;2.50;;;20.50;99.90;;;;;;5062099;28;20826;-50
2022/08/15 00:31:31;;;;;;;2.80;2.40;;;20.50;99.90;;;;;;5061703;28;20199;-50
2022/08/15 00:33:58;;;;;;;6.80;2.60;;;20.40;99.90;;;;;;5061963;28;20202;-50
2022/08/15 00:36:26;;;;;;;3.03;2.33;;;20.40;99.90;;;;;;5059462;28;20187;-49
2022/08/15 00:38:53;;;;;;;3.37;2.37;;;20.40;99.90;;;;;;5056026;28;20210;-48
2022/08/15 00:44:09;;;;;;;2.87;2.57;;;20.40;99.90;;;;;;5060342;28;20205;-50
2022/08/15 00:46:39;;;;;;;5.83;2.70;;;20.30;99.90;;;;;;5062872;28;20860;-49
2022/08/15 00:49:07;;;;;;;4.43;2.60;;;20.20;99.90;;;;;;5060766;28;20225;-50
2022/08/15 00:51:36;;;;;;;3.93;3.00;;;20.20;99.90;;;;;;5062218;28;20290;-49
2022/08/15 00:54:10;;;;;;;6.17;2.70;;;20.20;99.90;;;;;;5056295;28;20577;-48
2022/08/15 00:56:44;;;;;;;4.17;2.50;;;20.20;99.90;;;;;;5069398;28;20195;-54
2022/08/15 00:59:16;;;;;;;4.97;2.60;;;20.10;99.90;;;;;;5059745;28;20222;-52
2022/08/15 01:01:44;;;;;;;4.87;2.23;;;20.10;99.90;;;;;;5063264;28;20210;-48
2022/08/15 01:04:15;;;;;;;3.07;2.27;;;20.00;99.90;;;;;;5058646;28;20195;-50
2022/08/15 01:06:43;;;;;;;2.60;2.27;;;20.00;99.90;;;;;;5063275;28;20292;-47
2022/08/15 01:09:10;;;;;;;3.30;2.80;;;20.00;99.90;;;;;;5053592;28;20214;-48
2022/08/15 01:11:43;;;;;;;2.93;2.53;;;20.00;99.90;;;;;;5064826;28;20214;-49
2022/08/15 01:14:11;;;;;;;3.73;2.70;;;20.00;99.90;;;;;;5058871;28;20206;-52
2022/08/15 01:16:39;;;;;;;3.20;2.40;;;19.90;99.90;;;;;;5064429;28;20659;-47
2022/08/15 01:19:14;;;;;;;4.60;2.60;;;19.80;99.90;;;;;;5064362;28;20752;-52
2022/08/15 01:21:56;;;;;;;2.50;2.30;;;19.80;99.90;;;;;;5066769;28;20206;-54
2022/08/15 01:24:34;;;;;;;3.83;2.43;;;19.80;99.90;;;;;;5057503;28;20206;-50
2022/08/15 01:27:02;;;;;;;5.73;2.57;;;19.70;99.90;;;;;;5070248;28;20250;-51
2022/08/15 01:29:29;;;;;;;3.77;3.00;;;19.70;99.90;;;;;;5063157;28;20225;-54
2022/08/15 01:31:56;;;;;;;2.70;2.50;;;19.70;99.90;;;;;;5068226;28;20205;-49
2022/08/15 01:34:23;;;;;;;3.33;2.50;;;19.70;99.90;;;;;;5076596;28;20196;-47
2022/08/15 01:36:51;;;;;;;3.60;2.60;;;19.60;99.90;;;;;;5068660;28;20872;-47
2022/08/15 01:39:27;;;;;;;3.73;2.43;;;19.60;99.90;;;;;;5055329;28;20222;-48
2022/08/15 01:42:02;;;;;;;4.97;2.43;;;19.50;99.90;;;;;;5069951;28;20197;-52
2022/08/15 01:44:34;;;;;;;3.20;2.53;;;19.60;99.90;;;;;;5063412;28;20213;-50
2022/08/15 01:47:11;;;;;;;2.93;2.60;;;19.40;99.90;;;;;;5063132;28;20244;-49
2022/08/15 01:49:43;;;;;;;3.43;2.50;;;19.40;99.90;;;;;;5077831;28;20320;-49
2022/08/15 01:52:12;;;;;;;2.50;2.30;;;19.40;99.90;;;;;;5082371;28;20205;-51
2022/08/15 01:54:41;;;;;;;2.90;2.43;;;19.40;99.90;;;;;;5063495;28;20206;-46
2022/08/15 01:57:11;;;;;;;4.00;2.90;;;19.30;99.90;;;;;;5067540;28;20283;-50
2022/08/15 01:59:38;;;;;;;3.70;2.30;;;19.30;99.90;;;;;;5064569;28;20229;-49
2022/08/15 02:02:08;;;;;;;3.87;3.07;;;19.30;99.90;;;;;;5065165;28;20209;-52
2022/08/15 02:04:37;;;;;;;3.60;2.90;;;19.30;99.90;;;;;;5068949;28;20203;-52
2022/08/15 02:07:09;;;;;;;3.10;2.80;;;19.30;99.90;;;;;;5068048;28;20319;-52
2022/08/15 02:09:37;;;;;;;3.77;2.40;;;19.30;99.90;;;;;;5053822;28;20310;-52
2022/08/15 02:12:08;;;;;;;4.67;2.57;;;19.20;99.90;;;;;;5070738;28;20286;-52
2022/08/15 02:14:42;;;;;;;3.77;2.53;;;19.20;99.90;;;;;;5063540;28;20200;-47
2022/08/15 02:17:13;;;;;;;3.83;2.73;;;19.20;99.90;;;;;;5061943;28;20195;-50
2022/08/15 02:19:42;;;;;;;3.07;2.57;;;19.20;99.90;;;;;;5064262;28;20219;-46
2022/08/15 02:22:11;;;;;;;3.13;2.60;;;19.10;99.90;;;;;;5060951;28;20290;-48
2022/08/15 02:24:38;;;;;;;3.50;2.53;;;19.10;99.90;;;;;;5054519;28;20698;-52
2022/08/15 02:27:06;;;;;;;3.53;2.37;;;19.00;99.90;;;;;;5070058;28;20218;-53
2022/08/15 02:29:34;;;;;;;4.13;2.60;;;19.00;99.90;;;;;;5082308;28;20233;-51
2022/08/15 02:32:08;;;;;;;3.27;2.70;;;19.00;99.90;;;;;;5082895;28;20202;-52
2022/08/15 02:34:36;;;;;;;4.67;2.90;;;19.00;99.90;;;;;;5087980;28;20288;-50
2022/08/15 02:37:04;;;;;;;4.23;2.77;;;18.90;99.90;;;;;;5083084;28;20197;-50
2022/08/15 02:39:31;;;;;;;6.97;2.93;;;18.90;99.90;;;;;;5066638;28;20244;-51
2022/08/15 02:41:58;;;;;;;3.10;2.80;;;18.80;99.90;;;;;;5079812;28;20205;-51
2022/08/15 02:44:25;;;;;;;3.17;2.80;;;18.80;99.90;;;;;;5079547;28;20309;-51
2022/08/15 02:47:00;;;;;;;5.10;2.73;;;18.80;99.90;;;;;;5079485;28;20222;-51
2022/08/15 02:49:29;;;;;;;5.87;2.90;;;18.80;99.90;;;;;;5062764;28;20926;-48
2022/08/15 02:51:57;;;;;;;4.03;2.77;;;18.80;99.90;;;;;;5063226;28;20213;-50
2022/08/15 02:54:27;;;;;;;3.43;3.00;;;18.80;99.90;;;;;;5059698;28;20199;-51
2022/08/15 02:56:55;;;;;;;3.03;2.73;;;18.80;99.90;;;;;;5059722;28;20206;-53
2022/08/15 02:59:22;;;;;;;5.93;2.60;;;18.80;99.90;;;;;;5068082;28;20221;-54
2022/08/15 03:01:50;;;;;;;3.73;2.97;;;18.80;99.90;;;;;;5064890;28;20202;-50
2022/08/15 03:04:20;;;;;;;3.50;2.90;;;18.70;99.90;;;;;;5068216;28;20197;-51
2022/08/15 03:06:49;;;;;;;5.33;3.20;;;18.70;99.90;;;;;;5070607;28;20551;-50
2022/08/15 03:09:17;;;;;;;7.67;3.60;;;18.70;99.90;;;;;;5059558;28;20214;-49
2022/08/15 03:11:52;;;;;;;3.60;3.27;;;18.70;99.90;;;;;;5051726;28;20698;-52
2022/08/15 03:14:21;;;;;;;7.83;3.27;;;18.50;99.90;;;;;;5067527;28;20228;-51
2022/08/15 03:16:49;;;;;;;5.03;3.10;;;18.60;99.90;;;;;;5063374;28;20209;-51
2022/08/15 03:19:24;;;;;;;5.53;2.90;;;18.50;99.90;;;;;;5059105;28;20222;-53
2022/08/15 03:21:53;;;;;;;4.13;3.00;;;18.50;99.90;;;;;;5064472;28;20199;-51
2022/08/15 03:24:22;;;;;;;3.73;3.43;;;18.50;99.90;;;;;;5058224;28;20978;-51
2022/08/15 03:26:50;;;;;;;4.67;3.70;;;18.50;99.90;;;;;;5055706;28;20694;-49
2022/08/15 03:29:20;;;;;;;3.70;3.30;;;18.50;99.90;;;;;;5064356;28;20295;-51
2022/08/15 03:31:52;;;;;;;5.07;3.20;;;18.50;99.90;;;;;;5064273;28;20234;-51
2022/08/15 03:34:26;;;;;;;3.83;3.17;;;18.40;99.90;;;;;;5065603;28;20209;-52
2022/08/15 03:36:55;;;;;;;3.23;3.03;;;18.40;99.90;;;;;;5064289;28;20199;-48
2022/08/15 03:39:24;;;;;;;3.30;3.00;;;18.50;99.90;;;;;;5058805;28;20226;-50
2022/08/15 03:41:52;;;;;;;3.97;3.30;;;18.40;99.90;;;;;;5054551;28;20335;-51
2022/08/15 03:44:19;;;;;;;3.57;3.27;;;18.40;99.90;;;;;;5064573;28;20267;-52
2022/08/15 03:46:46;;;;;;;3.50;3.20;;;18.30;99.90;;;;;;5067338;28;20226;-49
2022/08/15 03:49:15;;;;;;;3.70;3.27;;;18.30;99.90;;;;;;5058559;28;20890;-52
2022/08/15 03:51:43;;;;;;;3.87;3.27;;;18.30;99.90;;;;;;5062774;28;20213;-51
2022/08/15 03:54:14;;;;;;;7.27;3.33;;;18.30;99.90;;;;;;5057931;28;20285;-50
2022/08/15 03:56:43;;;;;;;3.57;3.37;;;18.30;99.90;;;;;;5055546;28;20194;-51
2022/08/15 03:59:12;;;;;;;3.50;3.20;;;18.30;99.90;;;;;;5064869;28;20221;-51
2022/08/15 04:01:42;;;;;;;4.43;3.63;;;18.40;99.90;;;;;;5069482;28;20289;-49
2022/08/15 04:04:08;;;;;;;4.50;3.00;;;18.30;99.90;;;;;;5058691;28;20198;-52
2022/08/15 04:06:40;;;;;;;6.57;2.90;;;18.30;99.90;;;;;;5063372;28;20714;-51
2022/08/15 04:09:08;;;;;;;4.03;3.13;;;18.30;99.90;;;;;;5059775;28;20317;-48
2022/08/15 04:11:37;;;;;;;3.77;3.37;;;18.30;99.90;;;;;;5060485;28;20203;-51
2022/08/15 04:14:11;;;;;;;4.97;3.30;;;18.20;99.90;;;;;;5055614;28;20668;-51
2022/08/15 04:16:38;;;;;;;6.27;3.40;;;18.30;99.90;;;;;;5063132;28;20203;-52
2022/08/15 04:19:05;;;;;;;5.33;3.23;;;18.30;99.90;;;;;;5077659;28;20586;-48
2022/08/15 04:21:33;;;;;;;4.83;3.70;;;18.30;99.90;;;;;;5067118;28;20194;-52
2022/08/15 04:24:00;;;;;;;6.20;3.33;;;18.20;99.90;;;;;;5064462;28;20690;-51
2022/08/15 04:26:27;;;;;;;4.13;3.73;;;18.30;99.90;;;;;;5066556;28;20206;-54
2022/08/15 04:28:55;;;;;;;5.77;3.87;;;18.20;99.90;;;;;;5056129;28;20202;-48
2022/08/15 04:31:28;;;;;;;4.27;3.37;;;18.20;99.90;;;;;;5063076;28;20206;-52
2022/08/15 04:33:55;;;;;;;5.90;3.47;;;18.20;99.90;;;;;;5064468;28;20201;-51
2022/08/15 04:36:24;;;;;;;6.90;4.10;;;18.20;99.90;;;;;;5070435;28;20194;-50
2022/08/15 04:38:53;;;;;;;6.90;3.73;;;18.20;99.90;;;;;;5063007;28;20293;-51
2022/08/15 04:41:20;;;;;;;5.70;3.57;;;18.20;99.90;;;;;;5068355;28;20679;-51
2022/08/15 04:43:48;;;;;;;3.73;3.50;;;18.20;99.90;;;;;;5056721;28;20830;-54
2022/08/15 04:46:20;;;;;;;4.03;3.47;;;18.20;99.90;;;;;;5075709;28;20201;-52
2022/08/15 04:48:48;;;;;;;6.33;3.47;;;18.20;99.90;;;;;;5067247;28;20237;-53
2022/08/15 04:51:16;;;;;;;3.90;3.57;;;18.30;99.90;;;;;;5074068;28;20200;-50
2022/08/15 04:53:44;;;;;;;6.57;4.27;;;18.30;99.90;;;;;;5068303;28;20213;-50
2022/08/15 04:56:12;;;;;;;4.40;3.40;;;18.30;99.90;;;;;;5069678;28;20240;-50
2022/08/15 04:58:40;;;;;;;4.00;3.60;;;18.30;99.90;;;;;;5059104;28;20551;-61
2022/08/15 05:01:12;;;;;;;4.37;3.40;;;18.30;99.90;;;;;;5069727;28;20628;-61
2022/08/15 05:03:52;;;;;;;4.53;4.13;;;18.30;99.90;;;;;;5063960;28;20194;-61
2022/08/15 05:06:19;;;;;;;4.23;3.87;;;18.30;99.90;;;;;;5074473;28;20208;-61
2022/08/15 05:08:47;;;;;;;4.30;3.90;;;18.40;99.90;;;;;;5062729;28;20198;-62
2022/08/15 05:11:20;;;;;;;5.33;3.30;;;18.40;99.90;;;;;;5066671;28;20201;-62
2022/08/15 05:13:55;;;;;;;4.07;3.77;;;18.40;99.90;;;;;;5052364;28;20275;-62
2022/08/15 05:16:29;;;;;;;5.70;4.53;;;18.40;99.90;;;;;;5075675;28;20230;-48
2022/08/15 05:18:57;;;;;;;4.10;3.60;;;18.50;99.90;;;;;;5064388;28;20280;-47
2022/08/15 05:21:27;;;;;;;5.80;3.67;;;18.50;99.90;;;;;;5072356;28;20217;-46
2022/08/15 05:23:53;;;;;;;3.80;3.40;;;18.50;99.90;;;;;;5068742;28;20191;-45
2022/08/15 05:26:23;;;;;;;4.57;4.17;;;18.60;99.90;;;;;;5065923;28;20198;-47
2022/08/15 05:28:51;;;;;;;4.70;3.67;;;18.60;99.90;;;;;;5052600;28;21135;-46
2022/08/15 05:31:18;;;;;;;4.10;3.70;;;18.70;99.90;;;;;;5079491;28;20279;-46
2022/08/15 05:33:47;;;;;;;4.80;3.70;;;18.70;99.90;;;;;;5059145;28;20203;-47
2022/08/15 05:36:17;;;;;;;3.90;3.50;;;18.80;99.90;;;;;;5068761;28;20203;-50
2022/08/15 05:38:48;;;;;;;4.77;4.23;;;18.80;99.90;;;;;;5067960;28;20260;-47
2022/08/15 05:41:30;;;;;;;8.30;4.03;;;18.90;99.90;;;;;;5064979;28;20202;-47
2022/08/15 05:44:02;;;;;;;4.13;3.77;;;18.90;99.90;;;;;;5054039;28;20213;-54
2022/08/15 05:46:43;;;;;;;4.57;4.13;;;19.00;99.90;;;;;;5085759;27;20203;-55
2022/08/15 05:49:24;;;;;;;4.40;4.00;;;19.00;99.90;;;;;;5071388;28;20214;-54
2022/08/15 05:52:09;;;;;;;4.97;4.50;;;19.10;99.90;;;;;;5071042;28;20317;-55
2022/08/15 05:54:53;;;;;;;4.63;4.23;;;19.10;99.90;;;;;;5062135;28;20209;-57
2022/08/15 05:57:26;;;;;;;4.43;4.03;;;19.20;99.90;;;;;;5082157;28;20635;-54
2022/08/15 05:59:58;;;;;;;4.87;3.73;;;19.30;99.90;;;;;;5057209;28;20335;-52
2022/08/15 06:02:31;;;;;;;5.10;4.60;;;19.40;99.90;;;;;;5077491;28;20736;-56
2022/08/15 06:05:03;;;;;;;4.97;4.47;;;19.50;99.90;;;;;;5075155;28;20988;-52
2022/08/15 06:07:32;;;;;;;7.73;4.50;;;19.60;99.90;;;;;;5065569;28;20257;-54
2022/08/15 06:10:03;;;;;;;4.53;4.13;;;19.70;99.90;;;;;;5071904;28;20209;-51
2022/08/15 06:12:37;;;;;;;6.87;4.70;;;19.80;99.90;;;;;;5062033;28;20671;-50
2022/08/15 06:15:18;;;;;;;5.00;3.70;;;19.90;99.90;;;;;;5049466;28;20205;-52
2022/08/15 06:17:56;;;;;;;6.43;4.67;;;20.00;99.90;;;;;;5068955;28;20804;-54
2022/08/15 06:20:33;;;;;;;5.37;4.90;;;20.10;99.90;;;;;;5062815;28;20218;-54
2022/08/15 06:23:12;;;;;;;5.33;4.43;;;20.20;99.90;;;;;;5061238;28;20693;-56
2022/08/15 06:25:45;;;;;;;4.93;4.50;;;20.30;99.90;;;;;;5066316;28;20197;-53
2022/08/15 06:28:29;;;;;;;5.80;4.87;;;20.40;99.90;;;;;;5071826;28;20210;-55
2022/08/15 06:31:06;;;;;;;4.90;4.33;;;20.40;99.90;;;;;;5057865;28;20230;-55
2022/08/15 06:33:40;;;;;;;5.83;5.10;;;20.50;99.90;;;;;;5071089;28;20205;-53
2022/08/15 06:36:20;;;;;;;5.87;4.60;;;20.60;99.90;;;;;;5062100;28;20218;-51
2022/08/15 06:38:55;;;;;;;5.03;4.53;;;20.80;99.90;;;;;;5072961;28;20515;-53
2022/08/15 06:41:38;;;;;;;6.73;4.10;;;20.80;99.90;;;;;;5080333;28;20208;-55
2022/08/15 06:44:13;;;;;;;5.97;4.40;;;20.90;99.90;;;;;;5081119;28;20210;-55
2022/08/15 06:47:03;;;;;;;7.80;4.70;;;21.00;99.90;;;;;;5068891;28;20217;-54
2022/08/15 06:49:33;;;;;;;5.60;5.10;;;21.20;99.90;;;;;;5063708;28;20206;-52
2022/08/15 06:52:02;;;;;;;5.63;5.00;;;21.30;99.90;;;;;;5069125;28;20239;-53
2022/08/15 06:54:30;;;;;;;7.70;4.50;;;21.40;99.90;;;;;;5059937;28;20252;-55
2022/08/15 06:57:03;;;;;;;6.27;5.67;;;21.50;99.90;;;;;;5064866;28;20203;-54
2022/08/15 06:59:37;;;;;;;7.27;5.93;;;21.60;99.90;;;;;;5070599;28;20214;-51
2022/08/15 07:02:20;;;;;;;7.07;5.90;;;21.70;99.90;;;;;;5060085;28;20210;-51
2022/08/15 07:04:55;;;;;;;6.60;6.00;;;21.90;99.90;;;;;;5071239;28;20190;-51
2022/08/15 07:07:29;;;;;;;7.30;6.60;;;22.10;99.90;;;;;;5058929;28;20254;-54
2022/08/15 07:10:08;;;;;;;8.17;6.33;;;22.30;99.90;;;;;;5066058;28;20620;-49
2022/08/15 07:12:42;;;;;;;7.37;6.10;;;22.50;99.90;;;;;;5070035;28;20189;-50
2022/08/15 07:15:16;;;;;;;7.60;6.17;;;22.60;99.90;;;;;;5072002;28;20205;-55
2022/08/15 07:17:48;;;;;;;8.97;6.10;;;22.80;99.90;;;;;;5052375;28;20208;-52
2022/08/15 07:20:15;;;;;;;6.70;6.07;;;22.90;99.90;;;;;;5071585;28;20221;-55
2022/08/15 07:22:43;;;;;;;8.63;5.77;;;23.00;99.90;;;;;;5063777;28;20278;-53
2022/08/15 07:25:18;;;;;;;7.90;6.23;;;23.10;99.90;;;;;;5069523;28;20205;-56
2022/08/15 07:27:56;;;;;;;9.93;6.23;;;23.20;99.90;;;;;;5065150;28;20991;-51
2022/08/15 07:30:36;;;;;;;7.03;6.10;;;23.50;99.90;;;;;;5057397;28;20581;-55
2022/08/15 07:33:03;;;;;;;6.65;6.03;;;23.60;99.90;;;;;;5059984;28;20214;-53
2022/08/15 07:35:32;;;;;;;6.82;6.25;;;23.70;99.90;;;;;;5070884;28;20916;-53
2022/08/15 07:38:03;;;;;;;7.15;6.35;;;23.80;99.90;;;;;;5065090;28;20202;-52
2022/08/15 07:40:36;;;;;;;6.93;6.22;;;24.00;99.90;;;;;;5063187;28;20211;-55
2022/08/15 07:43:22;;;;;;;7.40;6.10;;;24.10;99.90;;;;;;5072116;28;20202;-56
2022/08/15 07:45:52;;;;;;;6.57;5.93;;;24.30;99.90;;;;;;5052759;28;20198;-57
2022/08/15 07:48:26;;;;;;;6.97;6.30;;;24.40;99.90;;;;;;5055888;28;20217;-52
2022/08/15 07:51:06;;;;;;;7.63;5.88;;;24.50;99.90;;;;;;5059527;28;20229;-52
2022/08/15 07:53:33;;;;;;;6.55;5.95;;;24.70;99.90;;;;;;5076241;28;20206;-57
2022/08/15 07:56:12;;;;;;;7.25;6.15;;;24.80;99.90;;;;;;5066542;28;20243;-55
2022/08/15 07:58:41;;;;;;;6.60;6.00;;;25.00;99.90;;;;;;5074292;28;20677;-52
2022/08/15 08:01:13;;;;;;;6.90;6.25;;;25.10;99.90;;;;;;5058181;28;20265;-55
2022/08/15 08:03:43;;;;;;;10.07;6.35;;;25.20;99.90;;;;;;5054394;28;20209;-56
2022/08/15 08:06:22;;;;;;;6.63;6.00;;;25.30;99.90;;;;;;5058065;28;20204;-56
2022/08/15 08:08:56;;;;;;;6.90;6.10;;;25.40;99.90;;;;;;5069463;28;20267;-54
2022/08/15 08:11:44;;;;;;;8.18;6.10;;;25.40;99.90;;;;;;5067490;28;20258;-55
2022/08/15 08:14:22;;;;;;;6.75;6.15;;;25.50;99.90;;;;;;5082831;28;20222;-56
2022/08/15 08:16:54;;;;;;;6.72;6.07;;;25.70;99.90;;;;;;5058240;28;20213;-57
2022/08/15 08:19:30;;;;;;;6.30;5.60;;;25.80;99.90;;;;;;5050194;28;20706;-53
2022/08/15 08:22:07;;;;;;;7.25;6.45;;;25.90;99.90;;;;;;5058978;28;20264;-56
2022/08/15 08:24:47;;;;;;;9.40;6.47;;;26.00;99.90;;;;;;5067938;28;20535;-56
2022/08/15 08:27:27;;;;;;;7.22;6.63;;;26.10;99.90;;;;;;5065459;28;20220;-55
2022/08/15 08:30:03;;;;;;;6.60;6.18;;;26.20;99.90;;;;;;5064592;28;20204;-55
2022/08/15 08:32:42;;;;;;;6.97;6.00;;;26.30;99.90;;;;;;5071130;28;20213;-55
2022/08/15 08:35:18;;;;;;;6.57;5.78;;;26.40;99.40;;;;;;5053783;28;20284;-54
2022/08/15 08:37:55;;;;;;;7.20;6.70;;;26.50;99.10;;;;;;5068195;28;20718;-55
2022/08/15 08:43:28;;;;;;;6.60;6.00;;;26.70;98.50;;;;;;5070267;28;20209;-54
2022/08/15 08:46:04;;;;;;;8.70;6.28;;;26.80;97.80;;;;;;5073190;28;20190;-55
2022/08/15 08:48:46;;;;;;;6.15;5.75;;;26.90;97.30;;;;;;5064900;28;20217;-50
2022/08/15 08:51:22;;;;;;;8.02;6.13;;;27.00;97.30;;;;;;5058385;28;20214;-51
2022/08/15 08:53:56;;;;;;;9.20;6.80;;;27.10;96.90;;;;;;5068724;28;20205;-55
2022/08/15 08:56:27;;;;;;;6.97;6.47;;;27.20;96.40;;;;;;5074317;28;20208;-51
2022/08/15 08:59:02;;;;;;;8.25;6.68;;;27.20;96.20;;;;;;5065575;28;20271;-55
2022/08/15 09:01:31;;;;;;;9.35;6.68;;;27.30;95.80;;;;;;5070406;28;20206;-56
2022/08/15 09:04:02;;;;;;;6.60;6.07;;;27.30;95.80;;;;;;5068695;28;20198;-56
2022/08/15 09:06:34;;;;;;;6.55;5.97;;;27.50;95.60;;;;;;5072229;28;20683;-56
2022/08/15 09:09:08;;;;;;;6.25;5.65;;;27.50;95.50;;;;;;5059375;28;22209;-52
2022/08/15 09:11:40;;;;;;;7.05;6.25;;;27.60;95.20;;;;;;5079837;28;20202;-58
2022/08/15 09:14:17;;;;;;;7.28;6.53;;;27.70;94.80;;;;;;5074557;28;20259;-54
2022/08/15 09:16:46;;;;;;;7.40;6.68;;;27.70;94.40;;;;;;5077593;28;20202;-55
2022/08/15 09:19:17;;;;;;;7.75;7.05;;;27.70;94.30;;;;;;5072758;28;20225;-52
2022/08/15 09:21:45;;;;;;;7.15;6.65;;;27.80;94.30;;;;;;5060238;28;20630;-57
2022/08/15 09:24:14;;;;;;;10.35;6.45;;;27.80;94.10;;;;;;5063564;28;20980;-56
2022/08/15 09:26:52;;;;;;;7.15;6.28;;;27.80;94.10;;;;;;5065322;28;20302;-57
2022/08/15 09:29:31;;;;;;;7.68;6.80;;;28.00;93.90;;;;;;5075091;28;20230;-56
2022/08/15 09:32:19;;;;;;;6.85;6.25;;;28.00;93.60;;;;;;5067679;28;20221;-54
2022/08/15 09:35:05;;;;;;;10.73;6.80;;;28.20;92.80;;;;;;5066569;28;20202;-56
2022/08/15 09:37:51;;;;;;;8.02;7.28;;;28.20;93.00;;;;;;5059183;28;20634;-56
2022/08/15 09:40:56;;;;;;;6.43;5.82;;;28.20;92.90;;;;;;5066892;28;20224;-55
2022/08/15 09:43:42;;;;;;;12.75;7.25;;;28.30;92.10;;;;;;5064130;28;20221;-55
2022/08/15 09:46:30;;;;;;;7.57;6.88;;;28.40;92.30;;;;;;5066634;28;20191;-56
2022/08/15 09:49:09;;;;;;;7.72;6.72;;;28.30;92.60;;;;;;5065530;28;20221;-59
2022/08/15 09:51:57;;;;;;;7.93;6.95;;;28.40;92.50;;;;;;5063807;28;20944;-58
2022/08/15 09:54:27;;;;;;;8.00;7.30;;;28.50;92.20;;;;;;5050667;28;20211;-58
2022/08/15 09:57:21;;;;;;;7.30;6.70;;;28.60;92.20;;;;;;5073251;28;20201;-58
2022/08/15 09:59:52;;;;;;;8.48;6.70;;;28.70;91.90;;;;;;5075205;28;20214;-54
2022/08/15 10:02:27;;;;;;;8.90;6.97;;;28.70;91.70;;;;;;5067989;28;20387;-52
2022/08/15 10:05:23;;;;;;;8.82;6.95;;;28.80;91.60;;;;;;5072419;28;20711;-54
2022/08/15 10:07:53;;;;;;;8.45;7.43;;;28.90;91.60;;;;;;5038543;28;20210;-56
2022/08/15 10:10:41;;;;;;;8.10;7.30;;;28.90;91.40;;;;;;5057131;28;20228;-56
2022/08/15 10:13:21;;;;;;;8.40;7.60;;;28.90;91.00;;;;;;5062354;28;20739;-56
2022/08/15 10:15:49;;;;;;;7.43;6.72;;;29.10;90.50;;;;;;5071444;28;20566;-55
2022/08/15 10:18:49;;;;;;;7.40;6.78;;;29.20;90.20;;;;;;5061965;28;20252;-56
2022/08/15 10:21:19;;;;;;;7.60;6.70;;;29.30;89.70;;;;;;5062279;28;20214;-57
2022/08/15 10:23:49;;;;;;;7.32;6.60;;;29.40;88.80;;;;;;5064279;28;20592;-54
2022/08/15 10:26:27;;;;;;;8.32;6.47;;;29.30;88.90;;;;;;5050829;28;20203;-56
2022/08/15 10:29:05;;;;;;;7.50;6.75;;;29.40;88.00;;;;;;5079222;28;20765;-55
2022/08/15 10:31:41;;;;;;;8.10;7.30;;;29.40;86.90;;;;;;5071310;28;20194;-55
2022/08/15 10:34:17;;;;;;;7.30;6.30;;;29.50;86.40;;;;;;5065874;28;20678;-57
2022/08/15 10:37:09;;;;;;;7.80;7.20;;;29.60;85.90;;;;;;5068141;28;20231;-57
2022/08/15 10:39:48;;;;;;;6.72;6.18;;;29.50;84.70;;;;;;5066775;28;20247;-56
2022/08/15 10:42:26;;;;;;;7.68;6.57;;;29.50;85.00;;;;;;5056443;28;20206;-57
2022/08/15 10:45:02;;;;;;;9.20;6.30;;;29.60;84.20;;;;;;5065255;28;20210;-56
2022/08/15 10:47:44;;;;;;;9.98;6.57;;;29.70;83.80;;;;;;5061541;28;20194;-57
2022/08/15 10:50:17;;;;;;;7.07;6.38;;;29.80;83.50;;;;;;5072885;28;20227;-57
2022/08/15 10:53:00;;;;;;;7.88;7.13;;;29.80;83.20;;;;;;5064792;28;20228;-54
2022/08/15 10:55:31;;;;;;;6.65;6.15;;;29.80;83.00;;;;;;5048370;28;20213;-55
2022/08/15 10:58:01;;;;;;;7.97;6.30;;;29.90;82.90;;;;;;5067649;28;20206;-54
2022/08/15 11:00:45;;;;;;;7.80;6.78;;;29.90;82.50;;;;;;5069204;28;20207;-54
2022/08/15 11:03:18;;;;;;;6.90;6.22;;;30.00;81.50;;;;;;5065302;28;20247;-55
2022/08/15 11:05:55;;;;;;;6.60;6.00;;;30.00;81.50;;;;;;5061082;28;20225;-55
2022/08/15 11:08:24;;;;;;;6.78;6.28;;;30.00;80.70;;;;;;5072389;28;20225;-57
2022/08/15 11:10:51;;;;;;;7.25;6.65;;;30.00;80.70;;;;;;5061723;28;20231;-56
2022/08/15 11:13:23;;;;;;;7.60;7.00;;;30.00;81.00;;;;;;5063135;28;20201;-57
2022/08/15 11:15:55;;;;;;;9.90;7.00;;;29.90;81.40;;;;;;5070417;28;20205;-58
2022/08/15 11:18:30;;;;;;;7.85;7.22;;;29.90;81.70;;;;;;5066197;28;20201;-57
2022/08/15 11:21:16;;;;;;;11.25;6.90;;;30.10;81.90;;;;;;5070926;28;20237;-55
2022/08/15 11:23:54;;;;;;;7.50;6.82;;;30.10;80.90;;;;;;5062602;28;20865;-57
2022/08/15 11:26:27;;;;;;;8.23;6.70;;;30.10;81.20;;;;;;5053324;28;20214;-55
2022/08/15 11:28:57;;;;;;;7.63;6.97;;;30.10;80.90;;;;;;5063560;28;20221;-57
2022/08/15 11:31:25;;;;;;;7.30;6.70;;;30.20;80.90;;;;;;5076309;28;20198;-55
2022/08/15 11:33:54;;;;;;;8.20;6.90;;;30.30;80.80;;;;;;5071468;28;21076;-57
2022/08/15 11:36:23;;;;;;;8.23;6.50;;;30.30;80.40;;;;;;5072482;28;20205;-56
2022/08/15 11:38:55;;;;;;;6.88;6.22;;;30.40;79.70;;;;;;5059662;28;20204;-56
2022/08/15 11:41:27;;;;;;;7.47;6.85;;;30.60;78.70;;;;;;5069881;28;20578;-57
2022/08/15 11:43:57;;;;;;;8.95;6.90;;;30.60;77.80;;;;;;5057073;28;20280;-58
2022/08/15 11:46:27;;;;;;;8.27;7.57;;;30.50;77.50;;;;;;5073109;28;20248;-57
2022/08/15 11:49:00;;;;;;;8.63;7.18;;;30.60;77.90;;;;;;5070691;28;20214;-57
2022/08/15 11:51:34;;;;;;;8.45;7.55;;;30.70;77.70;;;;;;5063064;28;20256;-58
2022/08/15 11:54:18;;;;;;;6.90;6.25;;;30.60;77.40;;;;;;5062780;28;20206;-54
2022/08/15 11:56:48;;;;;;;6.95;6.35;;;30.60;77.70;;;;;;5052191;28;20214;-56
2022/08/15 11:59:19;;;;;;;7.35;6.65;;;30.50;78.10;;;;;;5065265;28;20224;-57
2022/08/15 12:02:12;;;;;;;8.52;7.07;;;30.30;77.90;;;;;;5071355;28;20191;-56
2022/08/15 12:04:42;;;;;;;8.10;6.72;;;30.20;77.30;;;;;;5068241;28;20742;-55
2022/08/15 12:07:23;;;;;;;7.15;6.55;;;30.20;77.60;;;;;;5068696;28;20240;-55
2022/08/15 12:09:55;;;;;;;9.55;6.93;;;30.30;76.10;;;;;;5063358;28;20226;-56
2022/08/15 12:12:29;;;;;;;7.60;6.88;;;30.40;76.50;;;;;;5074397;28;20207;-57
2022/08/15 12:15:01;;;;;;;7.88;7.03;;;30.40;76.40;;;;;;5052300;28;20233;-57
2022/08/15 12:17:30;;;;;;;8.30;7.50;;;30.30;76.70;;;;;;5069910;28;20210;-57
2022/08/15 12:19:58;;;;;;;9.48;7.50;;;30.20;77.30;;;;;;5069906;28;20213;-57
2022/08/15 12:22:32;;;;;;;9.18;7.10;;;30.10;77.90;;;;;;5071044;28;20190;-57
2022/08/15 12:25:01;;;;;;;8.13;7.32;;;30.00;77.80;;;;;;5062762;28;21350;-57
2022/08/15 12:27:28;;;;;;;7.68;6.93;;;30.00;78.00;;;;;;5059494;28;20198;-57
2022/08/15 12:29:56;;;;;;;7.80;7.18;;;30.00;78.60;;;;;;5063325;28;20270;-57
2022/08/15 12:32:23;;;;;;;7.43;6.93;;;30.10;77.40;;;;;;5064488;28;20225;-56
2022/08/15 12:34:53;;;;;;;9.18;7.15;;;30.30;76.50;;;;;;5065091;28;20987;-56
2022/08/15 12:37:24;;;;;;;7.75;7.25;;;30.40;75.60;;;;;;5068499;28;20816;-57
2022/08/15 12:39:53;;;;;;;7.38;6.60;;;30.30;74.80;;;;;;5067630;28;20226;-58
2022/08/15 12:42:24;;;;;;;7.10;6.35;;;30.30;75.60;;;;;;5057092;28;20907;-58
2022/08/15 12:44:54;;;;;;;9.85;6.65;;;30.30;75.00;;;;;;5059525;28;20205;-57
2022/08/15 12:47:22;;;;;;;7.13;6.45;;;30.30;74.10;;;;;;5061676;28;20197;-57
2022/08/15 12:49:50;;;;;;;6.78;6.18;;;30.30;73.90;;;;;;5068798;28;20701;-57
2022/08/15 12:52:20;;;;;;;7.82;7.13;;;30.30;73.60;;;;;;5064824;28;20248;-57
2022/08/15 12:54:47;;;;;;;7.32;6.60;;;30.50;73.40;;;;;;5059077;28;20309;-57
2022/08/15 12:57:14;;;;;;;7.07;6.55;;;30.60;73.20;;;;;;5068006;28;20710;-57
2022/08/15 12:59:43;;;;;;;7.30;6.65;;;30.50;72.40;;;;;;5059555;28;20206;-57
2022/08/15 13:02:12;;;;;;;7.05;6.35;;;30.40;72.70;;;;;;5067377;28;20198;-57
2022/08/15 13:04:41;;;;;;;7.57;6.60;;;30.30;72.50;;;;;;5065454;28;20198;-57
2022/08/15 13:07:09;;;;;;;7.30;6.65;;;30.20;73.30;;;;;;5067818;28;20297;-58
2022/08/15 13:09:36;;;;;;;10.05;6.85;;;30.20;74.10;;;;;;5067308;28;20213;-57
2022/08/15 13:12:04;;;;;;;7.43;6.72;;;30.20;74.10;;;;;;5065158;28;20256;-56
2022/08/15 13:14:31;;;;;;;7.75;6.70;;;30.10;74.70;;;;;;5064741;28;20220;-57
2022/08/15 13:17:01;;;;;;;7.47;6.70;;;30.00;75.60;;;;;;5068120;28;20206;-57
2022/08/15 13:19:32;;;;;;;7.35;6.75;;;29.80;76.50;;;;;;5066897;28;20257;-57